Time;durP1;ratioP1;P1;durP2;ratioP2;P2;SDS_P1;SDS_P2;PMS_P1;PMS_P2;Temp;Humidity;BMP_temperature;BMP_pressure;BME280_temperature;BME280_humidity;BME280_pressure;Samples;Min_cycle;Max_cycle;Signal;HPM_P1;HPM_P2
2022/07/11 00:02:03;;;;;;;4.70;1.73;;;;;;;;;;5005640;28;20225;-44
2022/07/11 00:04:29;;;;;;;5.10;1.70;;;;;;;;;;5002935;28;20206;-44
2022/07/11 00:06:56;;;;;;;4.43;1.70;;;;;;;;;;5004419;28;20180;-44
2022/07/11 00:09:22;;;;;;;2.80;1.50;;;;;;;;;;5004052;28;20404;-44
2022/07/11 00:11:48;;;;;;;5.73;1.87;;;;;;;;;;5003652;28;20482;-44
2022/07/11 00:14:15;;;;;;;4.73;1.70;;;;;;;;;;5007720;28;20529;-44
2022/07/11 00:16:41;;;;;;;2.93;1.40;;;;;;;;;;5003226;28;20180;-44
2022/07/11 00:19:07;;;;;;;5.07;1.80;;;;;;;;;;5007377;28;20199;-44
2022/07/11 00:21:35;;;;;;;4.30;1.70;;;;;;;;;;5008307;28;20172;-44
2022/07/11 00:24:02;;;;;;;3.50;1.63;;;;;;;;;;5004423;28;20662;-44
2022/07/11 00:26:28;;;;;;;3.30;1.80;;;;;;;;;;5006045;28;20183;-44
2022/07/11 00:28:54;;;;;;;3.93;1.93;;;;;;;;;;5006030;28;20497;-44
2022/07/11 00:31:20;;;;;;;4.97;1.70;;;;;;;;;;5005249;28;20785;-42
2022/07/11 00:33:46;;;;;;;3.00;1.60;;;;;;;;;;5007596;28;20798;-41
2022/07/11 00:36:12;;;;;;;3.77;1.50;;;;;;;;;;5009024;28;20191;-42
2022/07/11 00:38:39;;;;;;;2.97;1.87;;;;;;;;;;5001505;28;20224;-43
2022/07/11 00:41:05;;;;;;;3.37;1.73;;;;;;;;;;5009763;28;20173;-42
2022/07/11 00:43:36;;;;;;;2.20;1.70;;;;;;;;;;5005916;28;20452;-41
2022/07/11 00:46:02;;;;;;;5.57;1.90;;;;;;;;;;5004759;28;20562;-41
2022/07/11 00:48:28;;;;;;;3.80;2.07;;;;;;;;;;5002044;28;20462;-44
2022/07/11 00:50:55;;;;;;;7.27;2.00;;;;;;;;;;5010057;28;20249;-44
2022/07/11 00:53:21;;;;;;;4.10;2.17;;;;;;;;;;5004026;28;20802;-43
2022/07/11 00:55:48;;;;;;;4.10;2.23;;;;;;;;;;5003155;28;20193;-43
2022/07/11 00:58:14;;;;;;;7.33;2.10;;;;;;;;;;5008810;28;20584;-44
2022/07/11 01:00:41;;;;;;;5.70;2.17;;;;;;;;;;5006268;28;20627;-44
2022/07/11 01:03:07;;;;;;;2.83;2.00;;;;;;;;;;5006075;28;20776;-43
2022/07/11 01:05:34;;;;;;;5.40;2.20;;;;;;;;;;5006605;28;20173;-43
2022/07/11 01:08:00;;;;;;;3.60;2.30;;;;;;;;;;5003606;28;20669;-44
2022/07/11 01:10:26;;;;;;;4.67;2.40;;;;;;;;;;5003793;28;20177;-44
2022/07/11 01:12:52;;;;;;;6.03;2.50;;;;;;;;;;5008320;28;20358;-43
2022/07/11 01:15:18;;;;;;;6.90;2.40;;;;;;;;;;5006824;28;20192;-44
2022/07/11 01:17:44;;;;;;;4.60;2.50;;;;;;;;;;5003859;28;20197;-42
2022/07/11 01:20:11;;;;;;;4.63;2.57;;;;;;;;;;5004808;28;20183;-44
2022/07/11 01:22:40;;;;;;;5.60;2.13;;;;;;;;;;5005018;28;20430;-44
2022/07/11 01:25:07;;;;;;;4.93;2.30;;;;;;;;;;5007054;28;20498;-42
2022/07/11 01:27:33;;;;;;;4.67;2.10;;;;;;;;;;5003718;28;20180;-43
2022/07/11 01:29:59;;;;;;;7.43;2.40;;;;;;;;;;5004314;28;21000;-43
2022/07/11 01:32:25;;;;;;;4.63;2.30;;;;;;;;;;5009021;28;22238;-44
2022/07/11 01:34:51;;;;;;;5.53;2.30;;;;;;;;;;5006992;28;20246;-44
2022/07/11 01:37:17;;;;;;;4.17;2.10;;;;;;;;;;5004003;28;20406;-43
2022/07/11 01:39:44;;;;;;;8.10;2.60;;;;;;;;;;5008009;28;20169;-44
2022/07/11 01:42:10;;;;;;;3.27;2.17;;;;;;;;;;5006567;28;20798;-44
2022/07/11 01:44:36;;;;;;;6.80;2.60;;;;;;;;;;5008850;28;20855;-43
2022/07/11 01:47:02;;;;;;;6.27;2.10;;;;;;;;;;5008836;28;20173;-44
2022/07/11 01:49:29;;;;;;;5.93;2.20;;;;;;;;;;5006257;28;20695;-44
2022/07/11 01:51:56;;;;;;;4.20;2.00;;;;;;;;;;5003348;28;20176;-44
2022/07/11 01:54:22;;;;;;;9.50;2.30;;;;;;;;;;5008853;28;20184;-43
2022/07/11 01:56:48;;;;;;;5.17;2.23;;;;;;;;;;5006617;28;20200;-42
2022/07/11 01:59:14;;;;;;;4.47;2.30;;;;;;;;;;5005779;28;20705;-41
2022/07/11 02:01:40;;;;;;;6.53;2.20;;;;;;;;;;5006149;28;20179;-44
2022/07/11 02:04:06;;;;;;;5.17;2.50;;;;;;;;;;5007551;28;20226;-42
2022/07/11 02:06:33;;;;;;;5.53;2.40;;;;;;;;;;5006277;28;20756;-42
2022/07/11 02:08:59;;;;;;;7.13;2.50;;;;;;;;;;5008840;28;20177;-42
2022/07/11 02:11:25;;;;;;;4.23;2.20;;;;;;;;;;5009038;28;20173;-42
2022/07/11 02:13:51;;;;;;;4.37;2.30;;;;;;;;;;5005307;28;21010;-42
2022/07/11 02:16:17;;;;;;;5.90;2.30;;;;;;;;;;5009172;28;20208;-42
2022/07/11 02:18:43;;;;;;;5.20;2.60;;;;;;;;;;5009174;28;20195;-40
2022/07/11 02:21:09;;;;;;;5.97;2.87;;;;;;;;;;5006802;28;20566;-41
2022/07/11 02:23:35;;;;;;;4.30;2.47;;;;;;;;;;5007063;28;20224;-41
2022/07/11 02:26:01;;;;;;;6.53;2.47;;;;;;;;;;5008501;28;20175;-42
2022/07/11 02:28:28;;;;;;;3.87;2.33;;;;;;;;;;5005560;28;20991;-41
2022/07/11 02:30:54;;;;;;;5.67;2.10;;;;;;;;;;5006520;28;20647;-42
2022/07/11 02:33:20;;;;;;;6.80;2.60;;;;;;;;;;5008579;28;20212;-42
2022/07/11 02:35:46;;;;;;;5.33;2.60;;;;;;;;;;5009766;28;20203;-42
2022/07/11 02:38:14;;;;;;;6.37;2.30;;;;;;;;;;5006834;28;20227;-43
2022/07/11 02:40:40;;;;;;;5.50;2.67;;;;;;;;;;5006765;28;20168;-43
2022/07/11 02:43:07;;;;;;;5.27;2.50;;;;;;;;;;5009304;28;20184;-43
2022/07/11 02:45:34;;;;;;;4.70;2.27;;;;;;;;;;5007406;28;20172;-44
2022/07/11 02:48:00;;;;;;;3.03;2.07;;;;;;;;;;5004051;28;20173;-44
2022/07/11 02:50:26;;;;;;;4.13;2.43;;;;;;;;;;5007777;28;20770;-43
2022/07/11 02:52:52;;;;;;;3.77;2.30;;;;;;;;;;5010742;28;20507;-43
2022/07/11 02:55:18;;;;;;;4.83;2.40;;;;;;;;;;5007735;28;20180;-42
2022/07/11 02:57:44;;;;;;;6.70;2.60;;;;;;;;;;5008208;28;20199;-44
2022/07/11 03:00:12;;;;;;;5.77;2.80;;;;;;;;;;5010905;28;20972;-42
2022/07/11 03:02:38;;;;;;;6.10;3.10;;;;;;;;;;5003618;28;20192;-41
2022/07/11 03:05:05;;;;;;;5.23;3.07;;;;;;;;;;5004995;28;20177;-42
2022/07/11 03:07:31;;;;;;;7.73;3.53;;;;;;;;;;5008353;28;20487;-42
2022/07/11 03:09:57;;;;;;;6.67;3.57;;;;;;;;;;5008316;28;20611;-42
2022/07/11 03:12:23;;;;;;;5.80;4.07;;;;;;;;;;5005859;28;20191;-43
2022/07/11 03:14:50;;;;;;;7.07;4.67;;;;;;;;;;5005831;28;20349;-42
2022/07/11 03:17:17;;;;;;;8.07;4.83;;;;;;;;;;5008721;28;20636;-42
2022/07/11 03:19:43;;;;;;;6.63;4.60;;;;;;;;;;5008744;28;20203;-42
2022/07/11 03:22:09;;;;;;;7.67;4.90;;;;;;;;;;5006151;28;20294;-41
2022/07/11 03:24:36;;;;;;;7.63;4.93;;;;;;;;;;5008180;28;20951;-42
2022/07/11 03:27:02;;;;;;;7.73;5.00;;;;;;;;;;5007453;28;20181;-42
2022/07/11 03:29:28;;;;;;;6.57;4.43;;;;;;;;;;5001867;28;20785;-40
2022/07/11 03:31:54;;;;;;;10.60;4.67;;;;;;;;;;5008951;28;20581;-42
2022/07/11 03:34:21;;;;;;;8.27;4.43;;;;;;;;;;5004820;28;20578;-42
2022/07/11 03:36:47;;;;;;;8.47;5.10;;;;;;;;;;5003794;28;20195;-42
2022/07/11 03:39:14;;;;;;;4.93;4.30;;;;;;;;;;5007634;28;20311;-42
2022/07/11 03:41:40;;;;;;;6.70;4.60;;;;;;;;;;5001657;28;20355;-42
2022/07/11 03:44:06;;;;;;;5.83;4.03;;;;;;;;;;5004759;28;20172;-42
2022/07/11 03:46:32;;;;;;;6.97;3.40;;;;;;;;;;5006737;28;20434;-43
2022/07/11 03:48:58;;;;;;;7.50;3.97;;;;;;;;;;5005019;28;20181;-42
2022/07/11 03:51:24;;;;;;;8.87;3.90;;;;;;;;;;5004730;28;20184;-42
2022/07/11 03:53:51;;;;;;;7.57;4.77;;;;;;;;;;5011016;28;20299;-41
2022/07/11 03:56:22;;;;;;;8.10;3.93;;;;;;;;;;5003474;28;20172;-41
2022/07/11 03:58:48;;;;;;;7.33;4.10;;;;;;;;;;5006521;28;20724;-41
2022/07/11 04:01:14;;;;;;;7.47;4.53;;;;;;;;;;5006173;28;20256;-42
2022/07/11 04:03:41;;;;;;;7.30;3.83;;;;;;;;;;5005169;28;20661;-41
2022/07/11 04:06:07;;;;;;;5.83;3.67;;;;;;;;;;5005532;28;20176;-44
2022/07/11 04:08:33;;;;;;;4.70;3.07;;;;;;;;;;5004727;28;20176;-41
2022/07/11 04:10:59;;;;;;;4.97;3.40;;;;;;;;;;5006834;28;20176;-41
2022/07/11 04:13:25;;;;;;;6.13;4.00;;;;;;;;;;5004900;28;20411;-41
2022/07/11 04:15:51;;;;;;;11.57;4.43;;;;;;;;;;5004206;28;20756;-42
2022/07/11 04:18:17;;;;;;;9.30;4.70;;;;;;;;;;5003086;28;20374;-43
2022/07/11 04:20:43;;;;;;;7.57;3.90;;;;;;;;;;5004062;28;20179;-43
2022/07/11 04:23:10;;;;;;;8.00;3.87;;;;;;;;;;5005264;28;20176;-43
2022/07/11 04:25:36;;;;;;;6.80;3.70;;;;;;;;;;5002736;28;20174;-43
2022/07/11 04:28:02;;;;;;;5.90;3.50;;;;;;;;;;4999672;28;20279;-43
2022/07/11 04:30:28;;;;;;;5.87;3.70;;;;;;;;;;5003862;28;20209;-43
2022/07/11 04:32:55;;;;;;;6.47;3.80;;;;;;;;;;4997221;28;20179;-43
2022/07/11 04:35:23;;;;;;;6.00;3.40;;;;;;;;;;5000647;28;20497;-43
2022/07/11 04:37:49;;;;;;;5.50;3.17;;;;;;;;;;5006273;28;20281;-43
2022/07/11 04:40:17;;;;;;;5.30;3.63;;;;;;;;;;5004694;28;20204;-43
2022/07/11 04:42:43;;;;;;;5.73;3.80;;;;;;;;;;5003029;28;20173;-43
2022/07/11 04:45:09;;;;;;;6.13;3.57;;;;;;;;;;5004623;28;20207;-43
2022/07/11 04:47:35;;;;;;;5.17;3.60;;;;;;;;;;5005905;28;20712;-42
2022/07/11 04:50:02;;;;;;;6.07;3.50;;;;;;;;;;5002793;28;20214;-43
2022/07/11 04:52:28;;;;;;;5.93;4.40;;;;;;;;;;5007165;28;20700;-43
2022/07/11 04:54:54;;;;;;;7.77;3.87;;;;;;;;;;5006209;28;20180;-43
2022/07/11 04:57:20;;;;;;;6.17;4.27;;;;;;;;;;5004391;28;20655;-43
2022/07/11 04:59:47;;;;;;;9.87;5.50;;;;;;;;;;5007023;28;20203;-42
2022/07/11 05:02:13;;;;;;;10.23;5.40;;;;;;;;;;5003363;28;20577;-43
2022/07/11 05:04:39;;;;;;;8.70;5.60;;;;;;;;;;5005293;28;20246;-43
2022/07/11 05:07:05;;;;;;;7.77;5.50;;;;;;;;;;5001845;28;20876;-42
2022/07/11 05:09:31;;;;;;;12.90;6.03;;;;;;;;;;5001848;28;20649;-42
2022/07/11 05:11:57;;;;;;;7.67;5.90;;;;;;;;;;5002828;28;20329;-41
2022/07/11 05:14:23;;;;;;;10.40;6.10;;;;;;;;;;5005037;28;20172;-43
2022/07/11 05:16:49;;;;;;;8.50;5.80;;;;;;;;;;5007570;28;20191;-42
2022/07/11 05:19:15;;;;;;;8.83;5.37;;;;;;;;;;5003982;28;20197;-43
2022/07/11 05:21:41;;;;;;;9.83;5.80;;;;;;;;;;5007209;28;20282;-43
2022/07/11 05:24:08;;;;;;;11.07;6.10;;;;;;;;;;5000419;28;20188;-42
2022/07/11 05:26:34;;;;;;;13.57;6.50;;;;;;;;;;5008840;28;20241;-40
2022/07/11 05:29:00;;;;;;;9.50;6.63;;;;;;;;;;5006908;28;20227;-42
2022/07/11 05:31:27;;;;;;;11.87;6.90;;;;;;;;;;5010848;28;20943;-42
2022/07/11 05:33:53;;;;;;;8.83;6.40;;;;;;;;;;5008366;28;20180;-42
2022/07/11 05:36:20;;;;;;;10.90;6.57;;;;;;;;;;5010212;28;20676;-42
2022/07/11 05:38:46;;;;;;;10.97;6.53;;;;;;;;;;5009001;28;20200;-42
2022/07/11 05:41:12;;;;;;;13.30;6.63;;;;;;;;;;5011685;28;20177;-44
2022/07/11 05:43:38;;;;;;;8.37;5.80;;;;;;;;;;5010445;28;20173;-44
2022/07/11 05:46:05;;;;;;;8.20;5.77;;;;;;;;;;5004774;28;20431;-41
2022/07/11 05:48:31;;;;;;;6.83;5.40;;;;;;;;;;5011751;28;20231;-42
2022/07/11 05:50:57;;;;;;;9.40;5.30;;;;;;;;;;5010918;28;20446;-42
2022/07/11 05:53:23;;;;;;;6.97;5.00;;;;;;;;;;5006630;28;20184;-42
2022/07/11 05:55:49;;;;;;;8.47;6.20;;;;;;;;;;5008864;28;20324;-42
2022/07/11 05:58:15;;;;;;;9.80;5.10;;;;;;;;;;5010928;28;20227;-41
2022/07/11 06:00:41;;;;;;;11.10;5.97;;;;;;;;;;5003963;28;20172;-42
2022/07/11 06:03:07;;;;;;;10.00;5.23;;;;;;;;;;5010659;28;20176;-40
2022/07/11 06:05:33;;;;;;;8.27;5.00;;;;;;;;;;5010628;28;20199;-42
2022/07/11 06:10:44;;;;;;;10.60;5.10;;;;;;;;;;5009746;28;20913;-44
2022/07/11 06:13:11;;;;;;;6.97;4.60;;;;;;;;;;5010930;28;20169;-43
2022/07/11 06:15:37;;;;;;;8.37;4.50;;;;;;;;;;5010501;28;20184;-44
2022/07/11 06:18:03;;;;;;;9.07;4.80;;;;;;;;;;5007641;28;21764;-44
2022/07/11 06:20:29;;;;;;;9.30;4.50;;;;;;;;;;5008996;28;20628;-44
2022/07/11 06:22:55;;;;;;;7.17;4.47;;;;;;;;;;5006002;28;20284;-43
2022/07/11 06:25:21;;;;;;;6.17;4.47;;;;;;;;;;5009150;28;20168;-44
2022/07/11 06:27:47;;;;;;;8.10;4.10;;;;;;;;;;5006792;28;20735;-42
2022/07/11 06:30:13;;;;;;;8.07;4.17;;;;;;;;;;5009803;28;20278;-43
2022/07/11 06:32:40;;;;;;;4.33;3.20;;;;;;;;;;5010533;28;20181;-43
2022/07/11 06:35:07;;;;;;;6.93;3.20;;;;;;;;;;5007447;28;20274;-42
2022/07/11 06:37:33;;;;;;;7.13;3.70;;;;;;;;;;5007836;28;20251;-42
2022/07/11 06:39:59;;;;;;;10.83;3.20;;;;;;;;;;5011212;28;20172;-44
2022/07/11 06:42:26;;;;;;;6.60;3.30;;;;;;;;;;5011529;28;20183;-42
2022/07/11 06:44:52;;;;;;;6.47;3.10;;;;;;;;;;5004312;28;20702;-44
2022/07/11 06:47:18;;;;;;;4.27;2.87;;;;;;;;;;5000110;28;20177;-42
2022/07/11 06:49:44;;;;;;;7.07;3.03;;;;;;;;;;5008147;28;20594;-42
2022/07/11 06:52:10;;;;;;;8.30;3.80;;;;;;;;;;5010865;28;20168;-42
2022/07/11 06:54:36;;;;;;;9.87;3.70;;;;;;;;;;5002171;28;20262;-42
2022/07/11 06:57:02;;;;;;;5.40;3.20;;;;;;;;;;5006352;28;20609;-42
2022/07/11 06:59:29;;;;;;;8.03;3.73;;;;;;;;;;5010119;28;20223;-42
2022/07/11 07:01:55;;;;;;;6.40;3.50;;;;;;;;;;5005807;28;20176;-41
2022/07/11 07:04:21;;;;;;;4.47;2.97;;;;;;;;;;5008978;28;20598;-42
2022/07/11 07:06:47;;;;;;;5.53;3.23;;;;;;;;;;5007620;28;20176;-44
2022/07/11 07:09:13;;;;;;;7.70;3.43;;;;;;;;;;5004860;28;20720;-42
2022/07/11 07:11:39;;;;;;;7.07;2.93;;;;;;;;;;5005017;28;20310;-42
2022/07/11 07:14:06;;;;;;;8.80;3.07;;;;;;;;;;5006084;28;20505;-42
2022/07/11 07:16:32;;;;;;;6.43;2.60;;;;;;;;;;5005352;28;20169;-42
2022/07/11 07:18:58;;;;;;;4.33;2.67;;;;;;;;;;5006505;28;20236;-43
2022/07/11 07:21:25;;;;;;;5.67;2.50;;;;;;;;;;5006582;28;20707;-43
2022/07/11 07:23:51;;;;;;;5.20;2.67;;;;;;;;;;5008536;28;20173;-42
2022/07/11 07:26:18;;;;;;;5.23;2.60;;;;;;;;;;5004173;28;20198;-42
2022/07/11 07:28:45;;;;;;;4.63;2.37;;;;;;;;;;5003656;28;20198;-43
2022/07/11 07:31:11;;;;;;;5.83;2.67;;;;;;;;;;5005801;28;20486;-43
2022/07/11 07:33:38;;;;;;;10.03;2.10;;;;;;;;;;5006059;28;20295;-43
2022/07/11 07:36:04;;;;;;;7.03;2.43;;;;;;;;;;5003077;28;20461;-45
2022/07/11 07:38:30;;;;;;;4.30;1.87;;;;;;;;;;5008231;28;20259;-42
2022/07/11 07:40:56;;;;;;;4.70;2.00;;;;;;;;;;5003594;28;21595;-42
2022/07/11 07:43:22;;;;;;;6.10;2.50;;;;;;;;;;5004515;28;20168;-41
2022/07/11 07:45:48;;;;;;;5.83;2.10;;;;;;;;;;5006326;28;20173;-42
2022/07/11 07:48:15;;;;;;;3.77;2.07;;;;;;;;;;5008790;28;20176;-45
2022/07/11 07:50:42;;;;;;;5.20;2.03;;;;;;;;;;5006973;28;20238;-42
2022/07/11 07:53:08;;;;;;;5.77;2.53;;;;;;;;;;5006250;28;20294;-43
2022/07/11 07:55:34;;;;;;;5.83;2.20;;;;;;;;;;5010180;28;20641;-43
2022/07/11 07:58:00;;;;;;;6.03;2.17;;;;;;;;;;5004495;28;20238;-42
2022/07/11 08:03:11;;;;;;;5.30;1.83;;;;;;;;;;5009726;28;20613;-43
2022/07/11 08:05:37;;;;;;;5.20;2.00;;;;;;;;;;5002875;28;20181;-42
2022/07/11 08:08:03;;;;;;;4.03;1.97;;;;;;;;;;5006727;28;20413;-43
2022/07/11 08:10:30;;;;;;;5.30;2.10;;;;;;;;;;5007657;28;20168;-42
2022/07/11 08:12:56;;;;;;;4.97;1.80;;;;;;;;;;5006556;28;20169;-42
2022/07/11 08:15:22;;;;;;;3.80;2.10;;;;;;;;;;5008782;28;21218;-43
2022/07/11 08:17:48;;;;;;;3.43;1.90;;;;;;;;;;5003884;28;20204;-43
2022/07/11 08:20:14;;;;;;;8.00;2.00;;;;;;;;;;5005485;28;20172;-43
2022/07/11 08:22:40;;;;;;;5.20;1.90;;;;;;;;;;5007325;28;20574;-43
2022/07/11 08:25:07;;;;;;;3.63;2.03;;;;;;;;;;5010249;28;20278;-43
2022/07/11 08:27:33;;;;;;;4.10;2.00;;;;;;;;;;5005656;28;20743;-42
2022/07/11 08:29:59;;;;;;;3.40;1.87;;;;;;;;;;5006197;28;20241;-44
2022/07/11 08:32:26;;;;;;;3.67;1.90;;;;;;;;;;5007651;28;20230;-45
2022/07/11 08:34:52;;;;;;;5.30;1.97;;;;;;;;;;5007870;28;20413;-42
2022/07/11 08:37:18;;;;;;;5.07;1.77;;;;;;;;;;5004669;28;20267;-43
2022/07/11 08:39:44;;;;;;;3.53;1.67;;;;;;;;;;5002958;28;20247;-43
2022/07/11 08:42:10;;;;;;;6.33;2.07;;;;;;;;;;5006831;28;20479;-42
2022/07/11 08:44:37;;;;;;;2.60;1.70;;;;;;;;;;5001875;28;20712;-42
2022/07/11 08:47:04;;;;;;;3.70;1.80;;;;;;;;;;4998057;28;21055;-42
2022/07/11 08:49:31;;;;;;;6.07;2.10;;;;;;;;;;5006432;28;20222;-43
2022/07/11 08:51:57;;;;;;;4.60;1.60;;;;;;;;;;5011749;28;20191;-43
2022/07/11 08:54:23;;;;;;;4.77;1.80;;;;;;;;;;5008957;28;20199;-43
2022/07/11 08:56:50;;;;;;;4.10;1.87;;;;;;;;;;5013306;28;20257;-43
2022/07/11 08:59:17;;;;;;;3.43;2.03;;;;;;;;;;5008984;28;20750;-43
2022/07/11 09:01:45;;;;;;;3.63;1.73;;;;;;;;;;5010781;28;20555;-43
2022/07/11 09:04:13;;;;;;;4.13;1.90;;;;;;;;;;5013779;28;20254;-43
2022/07/11 09:06:40;;;;;;;4.77;1.70;;;;;;;;;;5012019;28;20176;-43
2022/07/11 09:09:06;;;;;;;3.87;1.63;;;;;;;;;;5005285;28;20183;-43
2022/07/11 09:11:52;;;;;;;5.50;2.20;;;;;;;;;;5005971;28;20531;-43
2022/07/11 09:14:25;;;;;;;2.97;1.87;;;;;;;;;;5010684;28;20676;-43
2022/07/11 09:16:52;;;;;;;4.33;1.97;;;;;;;;;;5011214;28;20180;-43
2022/07/11 09:19:23;;;;;;;7.70;2.00;;;;;;;;;;5008236;28;20207;-43
2022/07/11 09:27:44;;;;;;;3.43;1.60;;;;;;;;;;5013219;28;20191;-43
2022/07/11 09:30:19;;;;;;;4.33;1.80;;;;;;;;;;5008889;28;20275;-43
2022/07/11 09:33:01;;;;;;;6.50;1.80;;;;;;;;;;5009568;28;20180;-43
2022/07/11 09:35:35;;;;;;;5.57;1.63;;;;;;;;;;5009297;28;20270;-43
2022/07/11 09:38:05;;;;;;;4.23;1.87;;;;;;;;;;5012465;28;20711;-41
2022/07/11 09:40:31;;;;;;;3.37;1.50;;;;;;;;;;5011133;28;20637;-43
2022/07/11 09:42:58;;;;;;;3.40;1.43;;;;;;;;;;5006539;28;20191;-42
2022/07/11 09:45:28;;;;;;;3.93;1.60;;;;;;;;;;5012137;28;20235;-41
2022/07/11 09:47:56;;;;;;;3.30;1.67;;;;;;;;;;5009367;28;20695;-42
2022/07/11 09:50:26;;;;;;;2.63;1.73;;;;;;;;;;5006477;28;20185;-40
2022/07/11 09:53:03;;;;;;;5.40;1.60;;;;;;;;;;5009541;28;20187;-41
2022/07/11 09:55:33;;;;;;;3.13;1.90;;;;;;;;;;5011119;28;20259;-42
2022/07/11 09:57:59;;;;;;;2.37;1.23;;;;;;;;;;5008094;28;20930;-42
2022/07/11 10:00:25;;;;;;;5.67;1.80;;;;;;;;;;5007806;28;20489;-43
2022/07/11 10:02:52;;;;;;;4.47;1.60;;;;;;;;;;5009597;28;20597;-43
2022/07/11 10:05:18;;;;;;;3.07;1.60;;;;;;;;;;5003194;28;21004;-42
2022/07/11 10:07:44;;;;;;;2.87;1.50;;;;;;;;;;5005601;28;20180;-41
2022/07/11 10:10:11;;;;;;;3.33;1.70;;;;;;;;;;5007503;28;20893;-43
2022/07/11 10:12:37;;;;;;;4.87;1.60;;;;;;;;;;5008866;28;20211;-42
2022/07/11 10:15:14;;;;;;;4.37;1.73;;;;;;;;;;5006981;28;20180;-42
2022/07/11 10:17:45;;;;;;;2.63;1.50;;;;;;;;;;5008967;28;20185;-41
2022/07/11 10:20:26;;;;;;;6.10;1.43;;;;;;;;;;5006117;28;21204;-42
2022/07/11 10:22:55;;;;;;;2.93;1.50;;;;;;;;;;5000641;28;20674;-43
2022/07/11 10:25:25;;;;;;;2.47;1.67;;;;;;;;;;5009025;28;20215;-43
2022/07/11 10:28:00;;;;;;;4.40;1.70;;;;;;;;;;5009290;28;20808;-43
2022/07/11 10:30:46;;;;;;;4.17;1.60;;;;;;;;;;5005859;28;20479;-43
2022/07/11 10:33:13;;;;;;;1.63;1.30;;;;;;;;;;5009147;28;20322;-43
2022/07/11 10:35:43;;;;;;;4.60;1.43;;;;;;;;;;5009266;28;20747;-43
2022/07/11 10:38:09;;;;;;;2.67;1.57;;;;;;;;;;5007652;28;20631;-42
2022/07/11 10:40:46;;;;;;;6.03;1.57;;;;;;;;;;5008989;28;20434;-43
2022/07/11 10:43:12;;;;;;;3.00;1.30;;;;;;;;;;5008864;28;20744;-43
2022/07/11 10:45:57;;;;;;;6.53;1.70;;;;;;;;;;5010445;28;20286;-43
2022/07/11 10:48:24;;;;;;;2.67;1.50;;;;;;;;;;5005506;28;20188;-43
2022/07/11 10:51:13;;;;;;;3.00;1.53;;;;;;;;;;5008350;28;20696;-43
2022/07/11 10:53:46;;;;;;;4.40;1.80;;;;;;;;;;5004500;28;20692;-42
2022/07/11 10:56:47;;;;;;;3.23;1.60;;;;;;;;;;5004435;28;20199;-43
2022/07/11 10:59:18;;;;;;;6.30;1.67;;;;;;;;;;4984820;28;20217;-43
2022/07/11 11:02:05;;;;;;;5.13;1.93;;;;;;;;;;5002431;28;20464;-43
2022/07/11 11:04:42;;;;;;;4.80;1.80;;;;;;;;;;5005416;28;20294;-43
2022/07/11 11:07:28;;;;;;;3.93;1.70;;;;;;;;;;5003983;28;20207;-43
2022/07/11 11:09:54;;;;;;;2.90;1.70;;;;;;;;;;5008569;28;20640;-43
2022/07/11 11:12:20;;;;;;;2.63;1.60;;;;;;;;;;5006295;28;20184;-42
2022/07/11 11:14:46;;;;;;;4.13;1.60;;;;;;;;;;5007431;28;20476;-43
2022/07/11 11:17:31;;;;;;;5.37;1.70;;;;;;;;;;5007748;28;20582;-43
2022/07/11 11:19:57;;;;;;;3.70;1.47;;;;;;;;;;5002427;28;20192;-43
2022/07/11 11:22:24;;;;;;;2.47;1.47;;;;;;;;;;5003256;28;20249;-43
2022/07/11 11:24:52;;;;;;;2.10;1.40;;;;;;;;;;4999439;28;20296;-42
2022/07/11 11:27:19;;;;;;;3.90;1.37;;;;;;;;;;5005529;28;20180;-44
2022/07/11 11:29:46;;;;;;;2.87;1.30;;;;;;;;;;5007944;28;20200;-41
2022/07/11 11:32:12;;;;;;;3.97;1.50;;;;;;;;;;5004831;28;20486;-42
2022/07/11 11:34:42;;;;;;;4.17;1.40;;;;;;;;;;5004776;28;20180;-43
2022/07/11 11:37:09;;;;;;;3.47;1.50;;;;;;;;;;5011167;28;20215;-43
2022/07/11 11:39:38;;;;;;;1.70;1.50;;;;;;;;;;5011503;28;20321;-43
2022/07/11 11:42:05;;;;;;;2.70;1.40;;;;;;;;;;5000011;28;20185;-42
2022/07/11 11:44:32;;;;;;;2.00;1.30;;;;;;;;;;5008751;28;20177;-43
2022/07/11 11:46:58;;;;;;;2.50;1.30;;;;;;;;;;5009619;28;20467;-44
2022/07/11 11:49:24;;;;;;;3.53;1.13;;;;;;;;;;5007129;28;20188;-44
2022/07/11 11:51:54;;;;;;;2.83;1.03;;;;;;;;;;5006947;28;20556;-44
2022/07/11 11:54:25;;;;;;;3.37;1.77;;;;;;;;;;5011405;28;20170;-44
2022/07/11 11:56:52;;;;;;;2.60;1.57;;;;;;;;;;5006001;28;20176;-44
2022/07/11 11:59:18;;;;;;;2.30;1.40;;;;;;;;;;5009880;28;20204;-44
2022/07/11 12:01:48;;;;;;;3.03;1.27;;;;;;;;;;5006948;28;20995;-44
2022/07/11 12:04:16;;;;;;;2.83;1.30;;;;;;;;;;5000433;28;20291;-44
2022/07/11 12:06:50;;;;;;;3.27;1.40;;;;;;;;;;5007056;28;20177;-42
2022/07/11 12:09:45;;;;;;;1.90;1.20;;;;;;;;;;5005910;28;20184;-42
2022/07/11 12:14:51;;;;;;;2.43;1.10;;;;;;;;;;5007231;28;20217;-43
2022/07/11 12:17:23;;;;;;;3.47;1.57;;;;;;;;;;5007749;28;20523;-42
2022/07/11 12:19:49;;;;;;;2.03;1.30;;;;;;;;;;5008726;28;21154;-42
2022/07/11 12:22:15;;;;;;;4.30;1.20;;;;;;;;;;5008155;28;20237;-43
2022/07/11 12:24:46;;;;;;;3.03;1.60;;;;;;;;;;5004861;28;21040;-43
2022/07/11 12:27:17;;;;;;;3.43;1.47;;;;;;;;;;5008339;28;20181;-42
2022/07/11 12:29:47;;;;;;;2.27;1.20;;;;;;;;;;5008690;28;20764;-42
2022/07/11 12:32:14;;;;;;;3.40;1.37;;;;;;;;;;5004747;28;20276;-42
2022/07/11 12:34:40;;;;;;;2.33;1.23;;;;;;;;;;5006530;28;20174;-42
2022/07/11 12:37:09;;;;;;;2.93;1.30;;;;;;;;;;5006131;28;20736;-42
2022/07/11 12:39:39;;;;;;;2.13;1.23;;;;;;;;;;5004365;28;20502;-42
2022/07/11 12:42:24;;;;;;;2.33;1.37;;;;;;;;;;5004641;28;20181;-42
2022/07/11 12:45:10;;;;;;;3.53;1.30;;;;;;;;;;4997269;28;20191;-42
2022/07/11 12:47:40;;;;;;;2.57;1.30;;;;;;;;;;5005495;28;20181;-42
2022/07/11 12:50:14;;;;;;;1.97;1.30;;;;;;;;;;5002754;28;20940;-42
2022/07/11 12:52:40;;;;;;;2.40;1.40;;;;;;;;;;5006726;28;20176;-42
2022/07/11 12:55:07;;;;;;;4.23;1.17;;;;;;;;;;5009759;28;20570;-42
2022/07/11 12:57:34;;;;;;;3.60;1.33;;;;;;;;;;5006029;28;20196;-43
2022/07/11 13:00:16;;;;;;;3.33;1.20;;;;;;;;;;5007667;28;20799;-41
2022/07/11 13:02:49;;;;;;;2.77;1.40;;;;;;;;;;5007926;28;20765;-42
2022/07/11 13:05:15;;;;;;;4.33;1.30;;;;;;;;;;5006384;28;20179;-42
2022/07/11 13:10:50;;;;;;;3.03;1.40;;;;;;;;;;5009109;28;20269;-43
2022/07/11 13:13:17;;;;;;;3.20;1.30;;;;;;;;;;5008065;28;20207;-43
2022/07/11 13:15:44;;;;;;;2.93;1.23;;;;;;;;;;5005175;28;20182;-43
2022/07/11 13:18:10;;;;;;;1.20;1.10;;;;;;;;;;5005816;28;20203;-43
2022/07/11 13:20:37;;;;;;;5.00;1.40;;;;;;;;;;5008256;28;20266;-42
2022/07/11 13:23:04;;;;;;;4.93;1.30;;;;;;;;;;5008086;28;20585;-41
2022/07/11 13:25:30;;;;;;;3.60;1.40;;;;;;;;;;5004817;28;20771;-41
2022/07/11 13:27:56;;;;;;;4.83;1.40;;;;;;;;;;5005468;28;20429;-42
2022/07/11 13:30:27;;;;;;;7.33;1.63;;;;;;;;;;5003389;28;20801;-42
2022/07/11 13:32:54;;;;;;;2.40;1.10;;;;;;;;;;5005190;28;20751;-42
2022/07/11 13:35:20;;;;;;;1.97;1.20;;;;;;;;;;5008427;28;20199;-42
2022/07/11 13:37:47;;;;;;;4.10;1.67;;;;;;;;;;5008858;28;20716;-42
2022/07/11 13:40:15;;;;;;;2.40;1.10;;;;;;;;;;5012173;28;20173;-43
2022/07/11 13:42:44;;;;;;;5.13;1.50;;;;;;;;;;5010709;28;20243;-44
2022/07/11 13:45:11;;;;;;;3.00;1.30;;;;;;;;;;5007846;28;20251;-43
2022/07/11 13:47:37;;;;;;;4.17;1.50;;;;;;;;;;5010384;28;20479;-43
2022/07/11 13:50:03;;;;;;;1.83;1.10;;;;;;;;;;5008225;28;20205;-43
2022/07/11 13:52:30;;;;;;;2.10;1.20;;;;;;;;;;5002816;28;20515;-44
2022/07/11 13:54:56;;;;;;;3.73;1.40;;;;;;;;;;5002241;28;20655;-43
2022/07/11 13:57:22;;;;;;;1.87;1.20;;;;;;;;;;5003892;28;20573;-43
2022/07/11 13:59:49;;;;;;;1.73;1.10;;;;;;;;;;4999033;28;20922;-42
2022/07/11 14:02:15;;;;;;;4.73;1.20;;;;;;;;;;5001759;28;20289;-42
2022/07/11 14:04:42;;;;;;;6.43;1.50;;;;;;;;;;5002963;28;20630;-41
2022/07/11 14:07:08;;;;;;;5.87;1.17;;;;;;;;;;5004713;28;20833;-44
2022/07/11 14:09:34;;;;;;;5.90;1.30;;;;;;;;;;5002826;28;20634;-42
2022/07/11 14:12:01;;;;;;;2.40;1.30;;;;;;;;;;5005337;28;20317;-42
2022/07/11 14:14:28;;;;;;;4.00;1.40;;;;;;;;;;5001302;28;20653;-42
2022/07/11 14:16:55;;;;;;;5.43;1.40;;;;;;;;;;5002209;28;20235;-42
2022/07/11 14:19:21;;;;;;;8.23;1.30;;;;;;;;;;5005255;28;20201;-42
2022/07/11 14:21:47;;;;;;;3.73;1.40;;;;;;;;;;5006866;28;20642;-43
2022/07/11 14:24:13;;;;;;;4.13;1.27;;;;;;;;;;5006212;28;20968;-42
2022/07/11 14:26:39;;;;;;;5.23;2.00;;;;;;;;;;5008444;28;20266;-42
2022/07/11 14:29:06;;;;;;;2.83;1.47;;;;;;;;;;5005490;28;21433;-41
2022/07/11 14:31:32;;;;;;;6.17;1.93;;;;;;;;;;5006368;28;20177;-42
2022/07/11 14:33:59;;;;;;;7.13;1.63;;;;;;;;;;5006982;28;20866;-43
2022/07/11 14:36:25;;;;;;;4.20;1.47;;;;;;;;;;5008480;28;20454;-42
2022/07/11 14:38:52;;;;;;;4.00;1.60;;;;;;;;;;5002633;28;20624;-43
2022/07/11 14:41:19;;;;;;;5.67;2.00;;;;;;;;;;5007992;28;20187;-43
2022/07/11 14:43:46;;;;;;;4.57;1.40;;;;;;;;;;5009282;28;20184;-42
2022/07/11 14:46:12;;;;;;;3.37;1.33;;;;;;;;;;5004799;28;20181;-42
2022/07/11 14:48:39;;;;;;;3.13;1.60;;;;;;;;;;5006583;28;20901;-42
2022/07/11 14:51:05;;;;;;;5.97;1.87;;;;;;;;;;5007945;28;20299;-42
2022/07/11 14:53:31;;;;;;;4.97;1.43;;;;;;;;;;5006226;28;21210;-42
2022/07/11 14:55:57;;;;;;;3.43;1.70;;;;;;;;;;5006091;28;20173;-41
2022/07/11 14:58:23;;;;;;;6.10;1.70;;;;;;;;;;5009972;28;20747;-42
2022/07/11 15:00:50;;;;;;;6.23;1.67;;;;;;;;;;4999678;28;20685;-42
2022/07/11 15:06:00;;;;;;;6.87;1.70;;;;;;;;;;5009010;28;20551;-42